createdAt,value
2023-11-08T00:02:59.702Z,90.09
2023-11-08T00:06:03.422Z,92.95
2023-11-08T00:09:06.464Z,90.79
2023-11-08T00:12:08.416Z,89.85
2023-11-08T00:15:11.045Z,90.04
2023-11-08T00:18:14.248Z,90.29
2023-11-08T00:21:16.028Z,90.35
2023-11-08T00:24:18.247Z,90.44
2023-11-08T00:27:20.061Z,89.61
2023-11-08T00:30:21.748Z,89.09
2023-11-08T00:33:24.883Z,88.99
2023-11-08T00:36:26.675Z,90.08
2023-11-08T00:39:28.442Z,90.14
2023-11-08T00:42:30.211Z,89.81
2023-11-08T00:45:31.955Z,89.74
2023-11-08T00:48:35.146Z,89.87
2023-11-08T00:51:37.029Z,90.90
2023-11-08T00:54:38.852Z,90.76
2023-11-08T00:57:40.590Z,92.02
2023-11-08T01:00:42.339Z,91.53
2023-11-08T01:03:45.454Z,91.37
2023-11-08T01:06:47.311Z,90.66
2023-11-08T01:09:49.142Z,90.74
2023-11-08T01:12:51.028Z,90.99
2023-11-08T01:15:52.751Z,91.32
2023-11-08T01:18:55.985Z,93.15
2023-11-08T01:21:57.687Z,92.55
2023-11-08T01:24:59.507Z,91.33
2023-11-08T01:28:01.169Z,91.00
2023-11-08T01:31:02.980Z,91.12
2023-11-08T01:34:06.132Z,91.08
2023-11-08T01:37:07.864Z,90.99
2023-11-08T01:40:10.184Z,90.86
2023-11-08T01:43:27.009Z,90.50
2023-11-08T01:46:28.882Z,90.39
2023-11-08T01:49:32.009Z,89.92
2023-11-08T01:52:34.045Z,90.04
2023-11-08T01:55:35.810Z,90.31
2023-11-08T01:58:37.911Z,89.97
2023-11-08T02:01:39.639Z,90.56
2023-11-08T02:04:42.859Z,90.94
2023-11-08T02:07:44.641Z,90.72
2023-11-08T02:10:46.385Z,91.13
2023-11-08T02:13:48.102Z,92.22
2023-11-08T02:16:49.820Z,92.39
2023-11-08T02:19:52.874Z,93.37
2023-11-08T02:22:54.554Z,94.37
2023-11-08T02:25:57.604Z,93.44
2023-11-08T02:28:59.267Z,93.13
2023-11-08T02:32:00.946Z,93.72
2023-11-08T02:35:02.630Z,94.36
2023-11-08T02:38:04.425Z,94.76
2023-11-08T02:41:07.540Z,95.13
2023-11-08T02:44:09.452Z,94.97
2023-11-08T02:47:11.176Z,95.33
2023-11-08T02:50:12.927Z,95.21
2023-11-08T02:53:14.662Z,93.82
2023-11-08T02:56:17.756Z,94.16
2023-11-08T02:59:19.665Z,93.92
2023-11-08T03:02:21.622Z,93.64
2023-11-08T03:05:23.432Z,92.98
2023-11-08T03:08:25.205Z,92.42
2023-11-08T03:11:28.262Z,90.64
2023-11-08T03:14:30.034Z,89.90
2023-11-08T03:17:31.742Z,88.25
2023-11-08T03:20:33.530Z,89.03
2023-11-08T03:23:35.272Z,89.93
2023-11-08T03:26:38.309Z,89.87
2023-11-08T03:29:40.040Z,89.65
2023-11-08T03:32:42.584Z,90.57
2023-11-08T03:35:44.332Z,90.28
2023-11-08T03:38:46.064Z,89.72
2023-11-08T03:41:49.093Z,90.08
2023-11-08T03:44:50.804Z,89.46
2023-11-08T03:47:52.610Z,88.83
2023-11-08T03:50:54.347Z,89.86
2023-11-08T03:53:56.547Z,87.95
2023-11-08T03:56:59.668Z,87.77
2023-11-08T04:00:01.506Z,86.78
2023-11-08T04:03:03.472Z,87.47
2023-11-08T04:06:05.612Z,87.83
2023-11-08T04:09:07.363Z,88.26
2023-11-08T04:12:11.225Z,88.77
2023-11-08T04:15:12.972Z,88.24
2023-11-08T04:18:14.711Z,88.65
2023-11-08T04:21:16.602Z,88.68
2023-11-08T04:24:18.329Z,88.69
2023-11-08T04:27:21.430Z,88.71
2023-11-08T04:30:23.182Z,88.76
2023-11-08T04:33:24.912Z,88.56
2023-11-08T04:36:26.632Z,88.05
2023-11-08T04:39:28.375Z,88.54
2023-11-08T04:42:31.481Z,88.82
2023-11-08T04:45:33.274Z,87.98
2023-11-08T04:48:35.067Z,87.99
2023-11-08T04:51:36.925Z,87.90
2023-11-08T04:54:47.478Z,87.57
2023-11-08T04:57:55.076Z,87.88
2023-11-08T05:00:56.860Z,88.72
2023-11-08T05:04:00.556Z,88.96
2023-11-08T05:07:02.368Z,88.66
2023-11-08T05:10:04.831Z,88.10
2023-11-08T05:13:07.926Z,88.62
2023-11-08T05:16:09.648Z,88.53
2023-11-08T05:19:11.421Z,88.80
2023-11-08T05:22:13.513Z,89.21
2023-11-08T05:25:16.541Z,89.43
2023-11-08T05:28:19.765Z,88.93
2023-11-08T05:31:21.528Z,88.90
2023-11-08T05:34:23.242Z,88.14
2023-11-08T05:37:24.925Z,88.35
2023-11-08T05:40:26.585Z,87.59
2023-11-08T05:43:30.318Z,87.39
2023-11-08T05:46:31.862Z,87.61
2023-11-08T05:49:33.637Z,87.67
2023-11-08T05:52:35.368Z,88.25
2023-11-08T05:55:37.094Z,87.38
2023-11-08T05:58:40.530Z,86.92
2023-11-08T06:01:42.201Z,86.96
2023-11-08T06:04:43.886Z,86.73
2023-11-08T06:07:45.560Z,85.61
2023-11-08T06:10:47.257Z,85.49
2023-11-08T06:13:50.356Z,85.25
2023-11-08T06:16:52.073Z,85.36
2023-11-08T06:19:53.802Z,84.34
2023-11-08T06:22:55.547Z,84.06
2023-11-08T06:25:57.287Z,83.25
2023-11-08T06:29:00.372Z,84.13
2023-11-08T06:32:02.029Z,83.27
2023-11-08T06:35:04.340Z,83.05
2023-11-08T06:38:06.029Z,83.20
2023-11-08T06:41:07.705Z,82.71
2023-11-08T06:44:10.734Z,82.32
2023-11-08T06:47:12.495Z,82.96
2023-11-08T06:50:14.193Z,82.84
2023-11-08T06:53:15.934Z,83.49
2023-11-08T06:56:17.705Z,82.91
2023-11-08T06:59:20.760Z,82.75
2023-11-08T07:02:22.593Z,82.52
2023-11-08T07:05:30.299Z,82.21
2023-11-08T07:08:38.063Z,81.42
2023-11-08T07:11:39.754Z,81.46
2023-11-08T07:14:42.825Z,80.57
2023-11-08T07:17:44.572Z,80.61
2023-11-08T07:20:46.360Z,78.73
2023-11-08T07:23:48.228Z,79.19
2023-11-08T07:26:49.980Z,78.19
2023-11-08T07:29:52.982Z,77.58
2023-11-08T07:32:54.751Z,76.82
2023-11-08T07:35:56.446Z,76.96
2023-11-08T07:38:58.155Z,76.69
2023-11-08T07:41:59.922Z,76.72
2023-11-08T07:45:03.376Z,77.16
2023-11-08T07:48:05.570Z,76.34
2023-11-08T07:51:07.363Z,75.80
2023-11-08T07:54:09.018Z,76.04
2023-11-08T07:57:10.778Z,75.53
2023-11-08T08:00:14.392Z,74.43
2023-11-08T08:03:16.239Z,74.54
2023-11-08T08:06:17.926Z,74.58
2023-11-08T08:09:19.630Z,73.36
2023-11-08T08:12:21.353Z,73.97
2023-11-08T08:15:24.605Z,73.63
2023-11-08T08:18:26.438Z,72.88
2023-11-08T08:21:28.315Z,72.20
2023-11-08T08:24:30.261Z,71.09
2023-11-08T08:27:32.031Z,70.31
2023-11-08T08:30:35.819Z,70.19
2023-11-08T08:33:37.610Z,69.09
2023-11-08T08:36:39.332Z,67.34
2023-11-08T08:39:41.094Z,68.20
2023-11-08T08:42:43.096Z,65.72
2023-11-08T08:45:46.201Z,67.81
2023-11-08T08:48:47.972Z,67.43
2023-11-08T08:51:49.727Z,65.98
2023-11-08T08:54:51.448Z,64.46
2023-11-08T08:57:53.231Z,63.92
2023-11-08T09:00:56.314Z,63.53
2023-11-08T09:03:58.117Z,64.65
2023-11-08T09:06:59.946Z,63.96
2023-11-08T09:10:01.982Z,63.27
2023-11-08T09:13:03.742Z,63.70
2023-11-08T09:16:07.574Z,62.52
2023-11-08T09:19:09.813Z,62.69
2023-11-08T09:22:11.825Z,63.08
2023-11-08T09:25:13.739Z,61.88
2023-11-08T09:28:15.419Z,62.27
2023-11-08T09:31:18.485Z,62.37
2023-11-08T09:34:20.315Z,61.77
2023-11-08T09:37:22.236Z,62.10
2023-11-08T09:40:23.954Z,61.56
2023-11-08T09:43:27.061Z,62.27
2023-11-08T09:46:31.948Z,60.48
2023-11-08T09:49:35.417Z,60.25
2023-11-08T09:52:37.329Z,59.90
2023-11-08T09:55:39.056Z,59.93
2023-11-08T09:58:44.976Z,59.69
2023-11-08T10:01:50.831Z,60.43
2023-11-08T10:04:52.916Z,61.36
2023-11-08T10:07:54.799Z,61.32
2023-11-08T10:10:59.079Z,60.97
2023-11-08T10:14:00.822Z,61.66
2023-11-08T10:17:05.158Z,59.33
2023-11-08T10:20:09.538Z,59.30
2023-11-08T10:23:25.693Z,59.39
2023-11-08T10:26:27.370Z,59.09
2023-11-08T10:29:29.069Z,59.77
2023-11-08T10:32:32.114Z,60.03
2023-11-08T10:35:37.244Z,59.40
2023-11-08T10:38:39.020Z,59.74
2023-11-08T10:41:41.789Z,59.70
2023-11-08T10:44:43.485Z,58.15
2023-11-08T10:47:48.247Z,59.16
2023-11-08T10:50:51.955Z,58.67
2023-11-08T10:53:53.491Z,56.69
2023-11-08T10:56:56.899Z,56.06
2023-11-08T11:00:00.929Z,56.04
2023-11-08T11:03:09.893Z,53.85
2023-11-08T11:06:12.426Z,55.29
2023-11-08T11:09:14.374Z,54.66
2023-11-08T11:12:24.011Z,54.57
2023-11-08T11:15:37.014Z,54.43
2023-11-08T11:18:47.232Z,54.20
2023-11-08T11:21:52.740Z,54.20
2023-11-08T11:24:54.511Z,54.81
2023-11-08T11:27:56.245Z,53.63
2023-11-08T11:31:36.746Z,54.09
2023-11-08T11:34:44.408Z,53.42
2023-11-08T11:38:23.892Z,53.70
2023-11-08T11:41:27.303Z,53.89
2023-11-08T11:44:36.973Z,53.06
2023-11-08T11:47:40.594Z,53.43
2023-11-08T11:50:43.491Z,52.95
2023-11-08T11:53:45.934Z,52.18
2023-11-08T11:56:48.261Z,52.17
2023-11-08T11:59:51.359Z,51.87
2023-11-08T12:02:53.184Z,51.82
2023-11-08T12:05:56.621Z,51.87
2023-11-08T12:08:58.316Z,51.03
2023-11-08T12:12:00.014Z,50.85
2023-11-08T12:15:13.783Z,51.14
2023-11-08T12:18:15.450Z,51.93
2023-11-08T12:21:19.095Z,50.39
2023-11-08T12:24:20.626Z,51.42
2023-11-08T12:27:22.344Z,51.36
2023-11-08T12:30:24.007Z,52.18
2023-11-08T12:33:27.874Z,50.39
2023-11-08T12:36:31.243Z,50.60
2023-11-08T12:39:33.028Z,51.01
2023-11-08T12:42:34.849Z,50.43
2023-11-08T12:46:34.352Z,50.56
2023-11-08T12:48:59.526Z,51.66
2023-11-08T12:52:05.324Z,51.30
2023-11-08T12:55:07.669Z,51.67
2023-11-08T12:58:23.198Z,51.12
2023-11-08T13:01:24.948Z,51.89
2023-11-08T13:04:26.801Z,51.96
2023-11-08T13:07:29.911Z,53.58
2023-11-08T13:10:31.568Z,53.39
2023-11-08T13:13:33.224Z,53.58
2023-11-08T13:16:35.063Z,53.68
2023-11-08T13:19:36.798Z,53.70
2023-11-08T13:22:39.932Z,53.79
2023-11-08T13:25:44.239Z,52.43
2023-11-08T13:28:46.735Z,53.83
2023-11-08T13:31:48.446Z,52.83
2023-11-08T13:34:50.196Z,53.02
2023-11-08T13:37:53.336Z,52.03
2023-11-08T13:40:55.099Z,51.48
2023-11-08T13:43:56.799Z,51.67
2023-11-08T13:46:58.490Z,51.81
2023-11-08T13:50:00.305Z,51.01
2023-11-08T13:53:03.471Z,51.06
2023-11-08T13:56:05.908Z,51.47
2023-11-08T13:59:07.666Z,51.45
2023-11-08T14:02:09.427Z,51.86
2023-11-08T14:05:11.260Z,52.28
2023-11-08T14:08:14.339Z,52.79
2023-11-08T14:11:16.025Z,52.54
2023-11-08T14:14:17.701Z,53.66
2023-11-08T14:17:19.407Z,53.63
2023-11-08T14:20:21.115Z,52.15
2023-11-08T14:23:24.209Z,51.91
2023-11-08T14:26:25.939Z,52.23
2023-11-08T14:29:33.780Z,52.50
2023-11-08T14:32:40.373Z,51.61
2023-11-08T14:35:42.154Z,51.66
2023-11-08T14:38:45.262Z,51.86
2023-11-08T14:41:47.036Z,52.90
2023-11-08T14:44:48.840Z,52.87
2023-11-08T14:47:51.417Z,52.83
2023-11-08T14:50:53.510Z,53.28
2023-11-08T14:53:56.917Z,52.96
2023-11-08T14:56:58.617Z,53.81
2023-11-08T15:00:00.323Z,53.93
2023-11-08T15:03:02.139Z,54.44
2023-11-08T15:06:04.662Z,55.28
2023-11-08T15:09:52.090Z,55.37
2023-11-08T15:12:29.648Z,55.83
2023-11-08T15:15:31.347Z,56.12
2023-11-08T15:18:33.082Z,56.13
2023-11-08T15:21:34.880Z,56.43
2023-11-08T15:24:38.034Z,56.69
2023-11-08T15:27:39.790Z,57.26
2023-11-08T15:30:43.056Z,57.56
2023-11-08T15:33:44.844Z,58.46
2023-11-08T15:36:46.571Z,59.34
2023-11-08T15:39:49.966Z,58.37
2023-11-08T15:42:51.722Z,59.28
2023-11-08T15:45:53.499Z,59.37
2023-11-08T15:48:55.377Z,59.18
2023-11-08T15:51:57.132Z,59.94
2023-11-08T15:55:00.415Z,60.34
2023-11-08T15:58:02.181Z,59.96
2023-11-08T16:01:04.548Z,59.46
2023-11-08T16:04:06.529Z,58.18
2023-11-08T16:07:08.383Z,57.47
2023-11-08T16:10:11.767Z,57.14
2023-11-08T16:13:13.568Z,57.72
2023-11-08T16:16:15.329Z,57.56
2023-11-08T16:19:17.044Z,58.56
2023-11-08T16:22:19.293Z,58.93
2023-11-08T16:25:22.459Z,58.08
2023-11-08T16:28:24.211Z,58.35
2023-11-08T16:32:31.462Z,58.31
2023-11-08T16:34:47.693Z,59.17
2023-11-08T16:37:50.000Z,58.08
2023-11-08T16:40:54.119Z,58.51
2023-11-08T16:43:56.345Z,59.59
2023-11-08T16:46:58.662Z,60.91
2023-11-08T16:50:01.048Z,61.11
2023-11-08T16:53:03.976Z,61.44
2023-11-08T16:56:07.842Z,62.12
2023-11-08T16:59:10.168Z,63.36
2023-11-08T17:02:12.289Z,63.53
2023-11-08T17:05:14.636Z,64.52
2023-11-08T17:08:16.749Z,65.24
2023-11-08T17:11:20.358Z,65.71
2023-11-08T17:14:22.304Z,66.12
2023-11-08T17:17:25.299Z,67.09
2023-11-08T17:20:27.780Z,67.23
2023-11-08T17:23:29.794Z,67.67
2023-11-08T17:26:34.120Z,68.46
2023-11-08T17:29:38.272Z,69.66
2023-11-08T17:32:40.868Z,69.67
2023-11-08T17:35:43.559Z,69.88
2023-11-08T17:38:46.192Z,70.45
2023-11-08T17:41:50.656Z,70.08
2023-11-08T17:44:52.433Z,70.59
2023-11-08T17:47:54.691Z,71.13
2023-11-08T17:50:57.009Z,71.19
2023-11-08T17:53:59.278Z,71.97
2023-11-08T17:57:03.474Z,72.47
2023-11-08T18:00:06.625Z,73.05
2023-11-08T18:03:09.002Z,72.57
2023-11-08T18:06:12.581Z,73.02
2023-11-08T18:09:17.209Z,73.45
2023-11-08T18:12:20.315Z,74.21
2023-11-08T18:15:22.422Z,74.04
2023-11-08T18:18:25.316Z,74.23
2023-11-08T18:21:28.193Z,74.05
2023-11-08T18:24:31.946Z,74.30
2023-11-08T18:27:38.117Z,74.27
2023-11-08T18:30:42.165Z,74.44
2023-11-08T18:33:44.751Z,75.94
2023-11-08T18:36:47.651Z,75.17
2023-11-08T18:39:51.013Z,75.21
2023-11-08T18:42:55.788Z,75.21
2023-11-08T18:46:00.349Z,75.06
2023-11-08T18:49:03.321Z,75.55
2023-11-08T18:52:06.673Z,75.93
2023-11-08T18:55:10.140Z,75.80
2023-11-08T18:58:15.722Z,75.94
2023-11-08T19:01:19.010Z,75.64
2023-11-08T19:04:21.884Z,76.15
2023-11-08T19:07:24.362Z,75.41
2023-11-08T19:10:26.947Z,76.16
2023-11-08T19:13:30.892Z,76.00
2023-11-08T19:16:33.924Z,76.03
2023-11-08T19:19:36.860Z,76.68
2023-11-08T19:22:39.320Z,77.14
2023-11-08T19:25:45.397Z,77.15
2023-11-08T19:28:50.226Z,77.00
2023-11-08T19:31:53.173Z,77.18
2023-11-08T19:34:56.441Z,76.80
2023-11-08T19:37:58.912Z,76.97
2023-11-08T19:41:01.283Z,77.24
2023-11-08T19:44:06.067Z,78.01
2023-11-08T19:47:08.600Z,77.34
2023-11-08T19:50:14.002Z,77.82
2023-11-08T19:53:16.285Z,77.70
2023-11-08T19:56:19.252Z,77.18
2023-11-08T19:59:23.927Z,77.17
2023-11-08T20:02:27.253Z,77.03
2023-11-08T20:05:30.866Z,77.12
2023-11-08T20:08:34.482Z,77.14
2023-11-08T20:11:37.989Z,77.38
2023-11-08T20:14:43.130Z,77.49
2023-11-08T20:17:46.426Z,77.26
2023-11-08T20:20:49.316Z,77.28
2023-11-08T20:23:52.582Z,77.36
2023-11-08T20:26:55.209Z,78.42
2023-11-08T20:30:01.461Z,77.93
2023-11-08T20:33:04.660Z,78.22
2023-11-08T20:36:08.087Z,78.01
2023-11-08T20:39:11.360Z,77.84
2023-11-08T20:42:15.065Z,78.21
2023-11-08T20:45:19.545Z,78.65
2023-11-08T20:48:21.955Z,78.50
2023-11-08T20:51:24.825Z,78.80
2023-11-08T20:54:26.983Z,78.54
2023-11-08T20:57:32.239Z,78.47
2023-11-08T21:00:35.450Z,79.10
2023-11-08T21:03:37.539Z,78.63
2023-11-08T21:06:39.298Z,78.32
2023-11-08T21:09:41.082Z,78.55
2023-11-08T21:12:42.807Z,78.80
2023-11-08T21:15:46.114Z,79.30
2023-11-08T21:18:48.178Z,79.19
2023-11-08T21:21:49.980Z,79.78
2023-11-08T21:24:52.030Z,79.55
2023-11-08T21:27:54.236Z,79.68
2023-11-08T21:30:57.497Z,79.47
2023-11-08T21:33:59.568Z,79.33
2023-11-08T21:37:01.405Z,80.40
2023-11-08T21:40:03.846Z,79.89
2023-11-08T21:43:05.751Z,81.80
2023-11-08T21:46:08.989Z,82.04
2023-11-08T21:49:10.980Z,81.11
2023-11-08T21:52:12.906Z,80.35
2023-11-08T21:55:14.746Z,79.21
2023-11-08T21:58:16.503Z,78.99
2023-11-08T22:01:19.561Z,79.01
2023-11-08T22:04:21.332Z,79.62
2023-11-08T22:07:23.069Z,79.05
2023-11-08T22:10:24.799Z,79.00
2023-11-08T22:13:26.550Z,79.23
2023-11-08T22:16:29.577Z,79.10
2023-11-08T22:19:31.411Z,79.27
2023-11-08T22:22:33.085Z,79.73
2023-11-08T22:25:34.802Z,79.10
2023-11-08T22:28:36.458Z,79.70
2023-11-08T22:31:39.500Z,78.79
2023-11-08T22:34:41.164Z,79.22
2023-11-08T22:37:42.826Z,79.22
2023-11-08T22:40:44.505Z,79.40
2023-11-08T22:43:46.199Z,79.12
2023-11-08T22:46:49.276Z,80.13
2023-11-08T22:49:50.994Z,79.70
2023-11-08T22:52:52.698Z,79.17
2023-11-08T22:55:54.400Z,79.23
2023-11-08T22:58:56.094Z,79.33
2023-11-08T23:01:59.251Z,79.71
2023-11-08T23:05:01.024Z,79.83
2023-11-08T23:08:02.761Z,80.33
2023-11-08T23:11:04.670Z,81.76
2023-11-08T23:14:06.349Z,81.33
2023-11-08T23:17:09.337Z,81.67
2023-11-08T23:20:12.367Z,80.84
2023-11-08T23:23:14.098Z,80.58
2023-11-08T23:26:15.851Z,83.51
2023-11-08T23:29:17.515Z,82.30
2023-11-08T23:32:20.568Z,82.16
2023-11-08T23:35:22.415Z,81.19
2023-11-08T23:38:24.189Z,81.06
2023-11-08T23:41:25.884Z,81.81
2023-11-08T23:44:27.512Z,81.03
2023-11-08T23:47:30.561Z,84.07
2023-11-08T23:50:32.222Z,82.18
2023-11-08T23:53:33.876Z,81.96
2023-11-08T23:56:35.537Z,81.99
2023-11-08T23:59:37.183Z,81.85
